sensor_id;sensor_type;location;lat;lon;timestamp;P1;durP1;ratioP1;P2;durP2;ratioP2
3278;SDS011;1651;50.940;6.888;2023-05-19T00:01:39;11.38;;;5.00;;
3278;SDS011;1651;50.940;6.888;2023-05-19T00:04:07;6.97;;;4.88;;
3278;SDS011;1651;50.940;6.888;2023-05-19T00:06:34;9.85;;;5.45;;
3278;SDS011;1651;50.940;6.888;2023-05-19T00:09:01;10.00;;;5.05;;
3278;SDS011;1651;50.940;6.888;2023-05-19T00:11:27;8.13;;;4.90;;
3278;SDS011;1651;50.940;6.888;2023-05-19T00:13:54;6.90;;;5.40;;
3278;SDS011;1651;50.940;6.888;2023-05-19T00:16:20;8.25;;;5.18;;
3278;SDS011;1651;50.940;6.888;2023-05-19T00:18:47;7.25;;;5.43;;
3278;SDS011;1651;50.940;6.888;2023-05-19T00:21:15;7.90;;;5.00;;
3278;SDS011;1651;50.940;6.888;2023-05-19T00:23:41;10.98;;;4.75;;
3278;SDS011;1651;50.940;6.888;2023-05-19T00:26:07;13.50;;;5.05;;
3278;SDS011;1651;50.940;6.888;2023-05-19T00:28:33;7.13;;;5.07;;
3278;SDS011;1651;50.940;6.888;2023-05-19T00:30:59;7.00;;;5.40;;
3278;SDS011;1651;50.940;6.888;2023-05-19T00:33:26;10.82;;;4.90;;
3278;SDS011;1651;50.940;6.888;2023-05-19T00:35:52;6.55;;;4.43;;
3278;SDS011;1651;50.940;6.888;2023-05-19T00:38:18;6.47;;;5.07;;
3278;SDS011;1651;50.940;6.888;2023-05-19T00:40:44;5.68;;;4.90;;
3278;SDS011;1651;50.940;6.888;2023-05-19T00:43:10;9.25;;;4.70;;
3278;SDS011;1651;50.940;6.888;2023-05-19T00:45:36;7.10;;;5.30;;
3278;SDS011;1651;50.940;6.888;2023-05-19T00:48:02;9.87;;;5.20;;
3278;SDS011;1651;50.940;6.888;2023-05-19T00:50:28;7.38;;;5.32;;
3278;SDS011;1651;50.940;6.888;2023-05-19T00:52:54;6.88;;;4.95;;
3278;SDS011;1651;50.940;6.888;2023-05-19T00:55:28;9.15;;;4.90;;
3278;SDS011;1651;50.940;6.888;2023-05-19T00:57:58;7.20;;;5.03;;
3278;SDS011;1651;50.940;6.888;2023-05-19T01:00:26;7.63;;;6.30;;
3278;SDS011;1651;50.940;6.888;2023-05-19T01:02:53;8.38;;;5.10;;
3278;SDS011;1651;50.940;6.888;2023-05-19T01:05:20;7.22;;;5.40;;
3278;SDS011;1651;50.940;6.888;2023-05-19T01:07:47;9.32;;;5.93;;
3278;SDS011;1651;50.940;6.888;2023-05-19T01:10:17;8.10;;;5.80;;
3278;SDS011;1651;50.940;6.888;2023-05-19T01:12:43;8.32;;;5.50;;
3278;SDS011;1651;50.940;6.888;2023-05-19T01:15:09;7.13;;;5.45;;
3278;SDS011;1651;50.940;6.888;2023-05-19T01:20:30;11.27;;;6.22;;
3278;SDS011;1651;50.940;6.888;2023-05-19T01:28:24;12.93;;;5.70;;
3278;SDS011;1651;50.940;6.888;2023-05-19T01:30:53;8.55;;;5.00;;
3278;SDS011;1651;50.940;6.888;2023-05-19T01:33:21;7.28;;;4.80;;
3278;SDS011;1651;50.940;6.888;2023-05-19T01:35:47;7.65;;;5.35;;
3278;SDS011;1651;50.940;6.888;2023-05-19T01:38:15;10.00;;;5.82;;
3278;SDS011;1651;50.940;6.888;2023-05-19T01:40:42;8.27;;;6.22;;
3278;SDS011;1651;50.940;6.888;2023-05-19T01:43:10;7.30;;;5.05;;
3278;SDS011;1651;50.940;6.888;2023-05-19T01:45:37;6.50;;;4.90;;
3278;SDS011;1651;50.940;6.888;2023-05-19T01:48:04;7.75;;;5.43;;
3278;SDS011;1651;50.940;6.888;2023-05-19T01:50:31;8.05;;;5.70;;
3278;SDS011;1651;50.940;6.888;2023-05-19T01:52:57;9.30;;;5.50;;
3278;SDS011;1651;50.940;6.888;2023-05-19T01:55:23;8.10;;;6.30;;
3278;SDS011;1651;50.940;6.888;2023-05-19T01:57:54;11.60;;;5.55;;
3278;SDS011;1651;50.940;6.888;2023-05-19T02:00:28;9.18;;;5.50;;
3278;SDS011;1651;50.940;6.888;2023-05-19T02:08:33;10.70;;;5.68;;
3278;SDS011;1651;50.940;6.888;2023-05-19T02:11:15;9.10;;;5.70;;
3278;SDS011;1651;50.940;6.888;2023-05-19T02:13:43;16.20;;;7.28;;
3278;SDS011;1651;50.940;6.888;2023-05-19T02:16:10;18.85;;;6.70;;
3278;SDS011;1651;50.940;6.888;2023-05-19T02:18:38;7.10;;;5.70;;
3278;SDS011;1651;50.940;6.888;2023-05-19T02:21:04;17.00;;;5.90;;
3278;SDS011;1651;50.940;6.888;2023-05-19T02:23:30;9.38;;;6.45;;
3278;SDS011;1651;50.940;6.888;2023-05-19T02:25:56;11.02;;;6.32;;
3278;SDS011;1651;50.940;6.888;2023-05-19T02:28:22;9.68;;;6.45;;
3278;SDS011;1651;50.940;6.888;2023-05-19T02:30:52;11.75;;;6.30;;
3278;SDS011;1651;50.940;6.888;2023-05-19T02:33:19;8.88;;;6.22;;
3278;SDS011;1651;50.940;6.888;2023-05-19T02:35:49;7.95;;;5.95;;
3278;SDS011;1651;50.940;6.888;2023-05-19T02:38:15;9.27;;;6.30;;
3278;SDS011;1651;50.940;6.888;2023-05-19T02:40:42;7.57;;;6.30;;
3278;SDS011;1651;50.940;6.888;2023-05-19T02:43:09;8.63;;;5.77;;
3278;SDS011;1651;50.940;6.888;2023-05-19T02:45:35;7.82;;;5.60;;
3278;SDS011;1651;50.940;6.888;2023-05-19T02:48:02;9.02;;;6.38;;
3278;SDS011;1651;50.940;6.888;2023-05-19T02:50:28;10.43;;;5.35;;
3278;SDS011;1651;50.940;6.888;2023-05-19T02:52:54;7.57;;;6.17;;
3278;SDS011;1651;50.940;6.888;2023-05-19T02:55:20;7.70;;;5.70;;
3278;SDS011;1651;50.940;6.888;2023-05-19T02:57:46;8.57;;;5.40;;
3278;SDS011;1651;50.940;6.888;2023-05-19T03:00:12;8.83;;;5.70;;
3278;SDS011;1651;50.940;6.888;2023-05-19T03:02:38;11.32;;;6.57;;
3278;SDS011;1651;50.940;6.888;2023-05-19T03:05:05;6.70;;;5.28;;
3278;SDS011;1651;50.940;6.888;2023-05-19T03:07:32;8.65;;;5.38;;
3278;SDS011;1651;50.940;6.888;2023-05-19T03:09:58;12.35;;;6.13;;
3278;SDS011;1651;50.940;6.888;2023-05-19T03:12:27;10.88;;;5.78;;
3278;SDS011;1651;50.940;6.888;2023-05-19T03:14:53;9.70;;;5.90;;
3278;SDS011;1651;50.940;6.888;2023-05-19T03:17:22;7.60;;;6.15;;
3278;SDS011;1651;50.940;6.888;2023-05-19T03:19:48;10.02;;;6.10;;
3278;SDS011;1651;50.940;6.888;2023-05-19T03:22:15;9.93;;;6.10;;
3278;SDS011;1651;50.940;6.888;2023-05-19T03:24:42;9.88;;;5.80;;
3278;SDS011;1651;50.940;6.888;2023-05-19T03:27:08;10.15;;;6.18;;
3278;SDS011;1651;50.940;6.888;2023-05-19T03:29:34;9.15;;;6.50;;
3278;SDS011;1651;50.940;6.888;2023-05-19T03:32:01;7.45;;;5.85;;
3278;SDS011;1651;50.940;6.888;2023-05-19T03:34:27;6.95;;;5.85;;
3278;SDS011;1651;50.940;6.888;2023-05-19T03:36:53;10.10;;;5.70;;
3278;SDS011;1651;50.940;6.888;2023-05-19T03:39:20;6.22;;;5.32;;
3278;SDS011;1651;50.940;6.888;2023-05-19T03:41:46;7.95;;;6.03;;
3278;SDS011;1651;50.940;6.888;2023-05-19T03:44:12;7.77;;;6.40;;
3278;SDS011;1651;50.940;6.888;2023-05-19T03:46:39;13.80;;;7.05;;
3278;SDS011;1651;50.940;6.888;2023-05-19T03:49:05;9.13;;;5.88;;
3278;SDS011;1651;50.940;6.888;2023-05-19T03:51:31;8.73;;;6.60;;
3278;SDS011;1651;50.940;6.888;2023-05-19T03:53:58;7.95;;;6.20;;
3278;SDS011;1651;50.940;6.888;2023-05-19T03:56:24;10.80;;;6.18;;
3278;SDS011;1651;50.940;6.888;2023-05-19T03:58:52;9.70;;;6.90;;
3278;SDS011;1651;50.940;6.888;2023-05-19T04:01:21;7.93;;;6.03;;
3278;SDS011;1651;50.940;6.888;2023-05-19T04:03:47;6.53;;;5.88;;
3278;SDS011;1651;50.940;6.888;2023-05-19T04:06:14;8.85;;;5.90;;
3278;SDS011;1651;50.940;6.888;2023-05-19T04:08:41;8.95;;;6.00;;
3278;SDS011;1651;50.940;6.888;2023-05-19T04:11:08;8.05;;;6.30;;
3278;SDS011;1651;50.940;6.888;2023-05-19T04:13:34;7.82;;;5.95;;
3278;SDS011;1651;50.940;6.888;2023-05-19T04:16:00;9.30;;;5.40;;
3278;SDS011;1651;50.940;6.888;2023-05-19T04:18:26;9.85;;;5.60;;
3278;SDS011;1651;50.940;6.888;2023-05-19T04:20:52;12.02;;;6.72;;
3278;SDS011;1651;50.940;6.888;2023-05-19T04:23:18;10.90;;;5.90;;
3278;SDS011;1651;50.940;6.888;2023-05-19T04:25:44;9.27;;;5.97;;
3278;SDS011;1651;50.940;6.888;2023-05-19T04:28:12;9.85;;;5.80;;
3278;SDS011;1651;50.940;6.888;2023-05-19T04:30:39;7.90;;;5.63;;
3278;SDS011;1651;50.940;6.888;2023-05-19T04:33:06;8.35;;;6.00;;
3278;SDS011;1651;50.940;6.888;2023-05-19T04:35:33;7.82;;;6.10;;
3278;SDS011;1651;50.940;6.888;2023-05-19T04:37:59;9.48;;;6.93;;
3278;SDS011;1651;50.940;6.888;2023-05-19T04:40:25;9.38;;;5.82;;
3278;SDS011;1651;50.940;6.888;2023-05-19T04:42:51;11.43;;;6.65;;
3278;SDS011;1651;50.940;6.888;2023-05-19T04:45:18;8.75;;;5.47;;
3278;SDS011;1651;50.940;6.888;2023-05-19T04:47:44;10.48;;;5.65;;
3278;SDS011;1651;50.940;6.888;2023-05-19T04:50:12;9.55;;;6.35;;
3278;SDS011;1651;50.940;6.888;2023-05-19T04:52:38;12.23;;;6.85;;
3278;SDS011;1651;50.940;6.888;2023-05-19T04:55:04;6.85;;;5.72;;
3278;SDS011;1651;50.940;6.888;2023-05-19T04:57:30;10.40;;;6.00;;
3278;SDS011;1651;50.940;6.888;2023-05-19T04:59:56;7.80;;;5.85;;
3278;SDS011;1651;50.940;6.888;2023-05-19T05:02:27;7.65;;;5.30;;
3278;SDS011;1651;50.940;6.888;2023-05-19T05:04:55;9.23;;;6.15;;
3278;SDS011;1651;50.940;6.888;2023-05-19T05:07:22;9.15;;;5.65;;
3278;SDS011;1651;50.940;6.888;2023-05-19T05:09:48;7.63;;;5.20;;
3278;SDS011;1651;50.940;6.888;2023-05-19T05:12:15;7.23;;;5.33;;
3278;SDS011;1651;50.940;6.888;2023-05-19T05:14:42;11.20;;;5.90;;
3278;SDS011;1651;50.940;6.888;2023-05-19T05:17:10;7.47;;;5.63;;
3278;SDS011;1651;50.940;6.888;2023-05-19T05:19:36;9.00;;;5.60;;
3278;SDS011;1651;50.940;6.888;2023-05-19T05:22:03;8.60;;;6.20;;
3278;SDS011;1651;50.940;6.888;2023-05-19T05:24:30;8.07;;;5.63;;
3278;SDS011;1651;50.940;6.888;2023-05-19T05:26:56;14.77;;;5.93;;
3278;SDS011;1651;50.940;6.888;2023-05-19T05:29:23;10.60;;;6.07;;
3278;SDS011;1651;50.940;6.888;2023-05-19T05:31:49;8.63;;;6.37;;
3278;SDS011;1651;50.940;6.888;2023-05-19T05:34:15;13.03;;;6.07;;
3278;SDS011;1651;50.940;6.888;2023-05-19T05:36:41;12.20;;;6.00;;
3278;SDS011;1651;50.940;6.888;2023-05-19T05:39:07;8.90;;;5.50;;
3278;SDS011;1651;50.940;6.888;2023-05-19T05:41:33;10.40;;;4.80;;
3278;SDS011;1651;50.940;6.888;2023-05-19T05:44:02;10.20;;;5.40;;
3278;SDS011;1651;50.940;6.888;2023-05-19T05:46:28;5.17;;;4.37;;
3278;SDS011;1651;50.940;6.888;2023-05-19T05:48:54;10.70;;;4.80;;
3278;SDS011;1651;50.940;6.888;2023-05-19T05:51:21;4.80;;;4.40;;
3278;SDS011;1651;50.940;6.888;2023-05-19T05:53:50;7.73;;;4.80;;
3278;SDS011;1651;50.940;6.888;2023-05-19T05:56:16;7.67;;;3.73;;
3278;SDS011;1651;50.940;6.888;2023-05-19T05:58:42;8.00;;;3.97;;
3278;SDS011;1651;50.940;6.888;2023-05-19T06:01:08;9.93;;;4.13;;
3278;SDS011;1651;50.940;6.888;2023-05-19T06:03:39;8.03;;;3.80;;
3278;SDS011;1651;50.940;6.888;2023-05-19T06:06:06;4.53;;;3.93;;
3278;SDS011;1651;50.940;6.888;2023-05-19T06:08:32;9.13;;;3.50;;
3278;SDS011;1651;50.940;6.888;2023-05-19T06:10:58;4.20;;;3.07;;
3278;SDS011;1651;50.940;6.888;2023-05-19T06:13:25;4.40;;;3.20;;
3278;SDS011;1651;50.940;6.888;2023-05-19T06:15:52;8.83;;;4.00;;
3278;SDS011;1651;50.940;6.888;2023-05-19T06:18:18;4.97;;;3.03;;
3278;SDS011;1651;50.940;6.888;2023-05-19T06:20:44;7.00;;;3.00;;
3278;SDS011;1651;50.940;6.888;2023-05-19T06:23:10;7.03;;;3.10;;
3278;SDS011;1651;50.940;6.888;2023-05-19T06:25:37;5.03;;;3.00;;
3278;SDS011;1651;50.940;6.888;2023-05-19T06:28:03;6.07;;;3.00;;
3278;SDS011;1651;50.940;6.888;2023-05-19T06:30:29;4.93;;;3.13;;
3278;SDS011;1651;50.940;6.888;2023-05-19T06:32:56;4.80;;;3.00;;
3278;SDS011;1651;50.940;6.888;2023-05-19T06:35:22;3.93;;;3.10;;
3278;SDS011;1651;50.940;6.888;2023-05-19T06:37:48;4.10;;;2.67;;
3278;SDS011;1651;50.940;6.888;2023-05-19T06:40:15;4.00;;;2.90;;
3278;SDS011;1651;50.940;6.888;2023-05-19T06:42:42;2.87;;;2.50;;
3278;SDS011;1651;50.940;6.888;2023-05-19T06:45:08;5.30;;;2.97;;
3278;SDS011;1651;50.940;6.888;2023-05-19T06:47:42;4.27;;;2.57;;
3278;SDS011;1651;50.940;6.888;2023-05-19T06:50:09;3.30;;;2.37;;
3278;SDS011;1651;50.940;6.888;2023-05-19T06:52:35;4.53;;;2.20;;
3278;SDS011;1651;50.940;6.888;2023-05-19T06:55:01;3.23;;;1.80;;
3278;SDS011;1651;50.940;6.888;2023-05-19T06:57:27;3.00;;;2.03;;
3278;SDS011;1651;50.940;6.888;2023-05-19T06:59:53;5.17;;;2.17;;
3278;SDS011;1651;50.940;6.888;2023-05-19T07:02:19;4.07;;;1.90;;
3278;SDS011;1651;50.940;6.888;2023-05-19T07:04:45;4.80;;;1.97;;
3278;SDS011;1651;50.940;6.888;2023-05-19T07:07:11;3.60;;;2.07;;
3278;SDS011;1651;50.940;6.888;2023-05-19T07:09:37;3.17;;;1.57;;
3278;SDS011;1651;50.940;6.888;2023-05-19T07:12:03;6.10;;;2.87;;
3278;SDS011;1651;50.940;6.888;2023-05-19T07:14:29;6.67;;;2.30;;
3278;SDS011;1651;50.940;6.888;2023-05-19T07:16:56;3.83;;;2.30;;
3278;SDS011;1651;50.940;6.888;2023-05-19T07:19:22;2.87;;;1.70;;
3278;SDS011;1651;50.940;6.888;2023-05-19T07:21:48;7.30;;;2.20;;
3278;SDS011;1651;50.940;6.888;2023-05-19T07:24:14;4.93;;;2.13;;
3278;SDS011;1651;50.940;6.888;2023-05-19T07:26:41;7.70;;;1.97;;
3278;SDS011;1651;50.940;6.888;2023-05-19T07:29:07;2.50;;;2.10;;
3278;SDS011;1651;50.940;6.888;2023-05-19T07:34:04;5.47;;;2.20;;
3278;SDS011;1651;50.940;6.888;2023-05-19T07:36:30;3.80;;;1.60;;
3278;SDS011;1651;50.940;6.888;2023-05-19T07:38:56;3.07;;;1.83;;
3278;SDS011;1651;50.940;6.888;2023-05-19T07:41:22;3.33;;;1.97;;
3278;SDS011;1651;50.940;6.888;2023-05-19T07:43:49;6.40;;;2.10;;
3278;SDS011;1651;50.940;6.888;2023-05-19T07:46:15;4.60;;;2.30;;
3278;SDS011;1651;50.940;6.888;2023-05-19T07:48:42;4.77;;;2.03;;
3278;SDS011;1651;50.940;6.888;2023-05-19T07:51:09;2.33;;;1.60;;
3278;SDS011;1651;50.940;6.888;2023-05-19T07:53:35;3.73;;;1.53;;
3278;SDS011;1651;50.940;6.888;2023-05-19T07:56:02;4.30;;;1.80;;
3278;SDS011;1651;50.940;6.888;2023-05-19T07:58:28;1.90;;;1.70;;
3278;SDS011;1651;50.940;6.888;2023-05-19T08:00:57;4.80;;;2.00;;
3278;SDS011;1651;50.940;6.888;2023-05-19T08:03:24;1.60;;;1.47;;
3278;SDS011;1651;50.940;6.888;2023-05-19T08:05:50;5.33;;;2.03;;
3278;SDS011;1651;50.940;6.888;2023-05-19T08:08:16;3.03;;;1.60;;
3278;SDS011;1651;50.940;6.888;2023-05-19T08:10:43;2.87;;;1.57;;
3278;SDS011;1651;50.940;6.888;2023-05-19T08:13:11;3.73;;;1.80;;
3278;SDS011;1651;50.940;6.888;2023-05-19T08:15:38;3.53;;;1.90;;
3278;SDS011;1651;50.940;6.888;2023-05-19T08:18:04;5.40;;;2.03;;
3278;SDS011;1651;50.940;6.888;2023-05-19T08:20:30;4.60;;;1.97;;
3278;SDS011;1651;50.940;6.888;2023-05-19T08:22:58;2.70;;;1.80;;
3278;SDS011;1651;50.940;6.888;2023-05-19T08:25:24;3.33;;;1.93;;
3278;SDS011;1651;50.940;6.888;2023-05-19T08:27:50;6.00;;;2.00;;
3278;SDS011;1651;50.940;6.888;2023-05-19T08:30:16;4.83;;;1.70;;
3278;SDS011;1651;50.940;6.888;2023-05-19T08:32:42;5.70;;;2.80;;
3278;SDS011;1651;50.940;6.888;2023-05-19T08:35:08;4.87;;;1.97;;
3278;SDS011;1651;50.940;6.888;2023-05-19T08:37:36;6.03;;;2.30;;
3278;SDS011;1651;50.940;6.888;2023-05-19T08:40:03;5.63;;;2.10;;
3278;SDS011;1651;50.940;6.888;2023-05-19T08:42:29;6.60;;;2.10;;
3278;SDS011;1651;50.940;6.888;2023-05-19T08:44:57;5.97;;;2.40;;
3278;SDS011;1651;50.940;6.888;2023-05-19T08:47:23;3.60;;;1.30;;
3278;SDS011;1651;50.940;6.888;2023-05-19T08:49:51;7.50;;;2.00;;
3278;SDS011;1651;50.940;6.888;2023-05-19T08:52:28;2.63;;;1.70;;
3278;SDS011;1651;50.940;6.888;2023-05-19T08:55:04;3.10;;;1.67;;
3278;SDS011;1651;50.940;6.888;2023-05-19T08:57:35;2.87;;;1.70;;
3278;SDS011;1651;50.940;6.888;2023-05-19T09:00:02;3.23;;;1.77;;
3278;SDS011;1651;50.940;6.888;2023-05-19T09:02:33;4.00;;;2.07;;
3278;SDS011;1651;50.940;6.888;2023-05-19T09:05:01;3.67;;;2.10;;
3278;SDS011;1651;50.940;6.888;2023-05-19T09:07:28;5.53;;;2.07;;
3278;SDS011;1651;50.940;6.888;2023-05-19T09:09:54;4.83;;;2.33;;
3278;SDS011;1651;50.940;6.888;2023-05-19T09:12:20;6.10;;;1.90;;
3278;SDS011;1651;50.940;6.888;2023-05-19T09:14:47;3.30;;;1.90;;
3278;SDS011;1651;50.940;6.888;2023-05-19T09:17:14;3.07;;;1.63;;
3278;SDS011;1651;50.940;6.888;2023-05-19T09:19:43;2.33;;;1.50;;
3278;SDS011;1651;50.940;6.888;2023-05-19T09:22:13;5.40;;;2.17;;
3278;SDS011;1651;50.940;6.888;2023-05-19T09:24:39;5.70;;;1.80;;
3278;SDS011;1651;50.940;6.888;2023-05-19T09:27:06;6.63;;;2.30;;
3278;SDS011;1651;50.940;6.888;2023-05-19T09:29:32;4.60;;;1.73;;
3278;SDS011;1651;50.940;6.888;2023-05-19T09:31:58;3.63;;;2.10;;
3278;SDS011;1651;50.940;6.888;2023-05-19T09:34:28;4.40;;;1.80;;
3278;SDS011;1651;50.940;6.888;2023-05-19T09:36:54;2.50;;;2.10;;
3278;SDS011;1651;50.940;6.888;2023-05-19T09:39:22;5.00;;;1.93;;
3278;SDS011;1651;50.940;6.888;2023-05-19T09:41:52;4.87;;;1.90;;
3278;SDS011;1651;50.940;6.888;2023-05-19T09:44:22;2.43;;;2.17;;
3278;SDS011;1651;50.940;6.888;2023-05-19T09:46:51;5.90;;;1.80;;
3278;SDS011;1651;50.940;6.888;2023-05-19T09:49:22;3.40;;;1.67;;
3278;SDS011;1651;50.940;6.888;2023-05-19T09:51:52;2.47;;;1.70;;
3278;SDS011;1651;50.940;6.888;2023-05-19T09:54:19;2.90;;;1.80;;
3278;SDS011;1651;50.940;6.888;2023-05-19T09:56:55;2.43;;;1.50;;
3278;SDS011;1651;50.940;6.888;2023-05-19T09:59:23;3.33;;;1.83;;
3278;SDS011;1651;50.940;6.888;2023-05-19T10:01:50;3.57;;;1.80;;
3278;SDS011;1651;50.940;6.888;2023-05-19T10:04:16;4.23;;;1.90;;
3278;SDS011;1651;50.940;6.888;2023-05-19T10:06:42;3.10;;;1.43;;
3278;SDS011;1651;50.940;6.888;2023-05-19T10:09:08;3.80;;;1.90;;
3278;SDS011;1651;50.940;6.888;2023-05-19T10:11:38;3.67;;;2.23;;
3278;SDS011;1651;50.940;6.888;2023-05-19T10:14:04;5.33;;;2.27;;
3278;SDS011;1651;50.940;6.888;2023-05-19T10:16:30;4.40;;;1.90;;
3278;SDS011;1651;50.940;6.888;2023-05-19T10:18:57;3.60;;;1.93;;
3278;SDS011;1651;50.940;6.888;2023-05-19T10:21:24;8.07;;;2.03;;
3278;SDS011;1651;50.940;6.888;2023-05-19T10:23:50;3.20;;;1.60;;
3278;SDS011;1651;50.940;6.888;2023-05-19T10:26:16;4.77;;;1.90;;
3278;SDS011;1651;50.940;6.888;2023-05-19T10:28:42;6.10;;;1.93;;
3278;SDS011;1651;50.940;6.888;2023-05-19T10:31:10;4.63;;;1.70;;
3278;SDS011;1651;50.940;6.888;2023-05-19T10:38:52;3.90;;;2.10;;
3278;SDS011;1651;50.940;6.888;2023-05-19T10:41:23;3.23;;;2.17;;
3278;SDS011;1651;50.940;6.888;2023-05-19T10:46:26;3.87;;;1.80;;
3278;SDS011;1651;50.940;6.888;2023-05-19T10:48:52;3.90;;;2.07;;
3278;SDS011;1651;50.940;6.888;2023-05-19T10:51:19;3.10;;;1.47;;
3278;SDS011;1651;50.940;6.888;2023-05-19T10:53:45;3.00;;;1.83;;
3278;SDS011;1651;50.940;6.888;2023-05-19T10:56:11;3.20;;;1.60;;
3278;SDS011;1651;50.940;6.888;2023-05-19T10:58:53;3.60;;;1.63;;
3278;SDS011;1651;50.940;6.888;2023-05-19T11:01:19;5.73;;;2.13;;
3278;SDS011;1651;50.940;6.888;2023-05-19T11:06:19;4.07;;;1.80;;
3278;SDS011;1651;50.940;6.888;2023-05-19T11:08:46;6.53;;;1.93;;
3278;SDS011;1651;50.940;6.888;2023-05-19T11:11:16;4.77;;;2.17;;
3278;SDS011;1651;50.940;6.888;2023-05-19T11:13:45;4.37;;;1.90;;
3278;SDS011;1651;50.940;6.888;2023-05-19T11:16:12;3.93;;;2.27;;
3278;SDS011;1651;50.940;6.888;2023-05-19T11:18:39;4.00;;;2.50;;
3278;SDS011;1651;50.940;6.888;2023-05-19T11:21:05;2.33;;;1.53;;
3278;SDS011;1651;50.940;6.888;2023-05-19T11:23:36;6.27;;;2.23;;
3278;SDS011;1651;50.940;6.888;2023-05-19T11:26:05;2.90;;;2.40;;
3278;SDS011;1651;50.940;6.888;2023-05-19T11:28:33;4.00;;;2.40;;
3278;SDS011;1651;50.940;6.888;2023-05-19T11:30:59;1.97;;;1.27;;
3278;SDS011;1651;50.940;6.888;2023-05-19T11:33:26;2.33;;;1.93;;
3278;SDS011;1651;50.940;6.888;2023-05-19T11:35:54;3.10;;;1.90;;
3278;SDS011;1651;50.940;6.888;2023-05-19T11:38:23;6.87;;;2.07;;
3278;SDS011;1651;50.940;6.888;2023-05-19T11:40:51;3.53;;;1.73;;
3278;SDS011;1651;50.940;6.888;2023-05-19T11:43:17;2.33;;;1.97;;
3278;SDS011;1651;50.940;6.888;2023-05-19T11:45:45;4.30;;;2.33;;
3278;SDS011;1651;50.940;6.888;2023-05-19T11:48:12;4.30;;;2.10;;
3278;SDS011;1651;50.940;6.888;2023-05-19T11:50:39;3.40;;;1.73;;
3278;SDS011;1651;50.940;6.888;2023-05-19T11:53:06;2.57;;;2.00;;
3278;SDS011;1651;50.940;6.888;2023-05-19T11:55:32;2.23;;;1.83;;
3278;SDS011;1651;50.940;6.888;2023-05-19T11:58:03;3.13;;;1.90;;
3278;SDS011;1651;50.940;6.888;2023-05-19T12:00:29;2.90;;;1.50;;
3278;SDS011;1651;50.940;6.888;2023-05-19T12:03:02;2.67;;;2.20;;
3278;SDS011;1651;50.940;6.888;2023-05-19T12:05:28;3.20;;;1.73;;
3278;SDS011;1651;50.940;6.888;2023-05-19T12:07:55;3.43;;;1.90;;
3278;SDS011;1651;50.940;6.888;2023-05-19T12:10:22;8.00;;;2.00;;
3278;SDS011;1651;50.940;6.888;2023-05-19T12:12:53;3.73;;;1.80;;
3278;SDS011;1651;50.940;6.888;2023-05-19T12:15:21;2.80;;;2.00;;
3278;SDS011;1651;50.940;6.888;2023-05-19T12:17:48;6.70;;;2.03;;
3278;SDS011;1651;50.940;6.888;2023-05-19T12:20:15;2.70;;;2.43;;
3278;SDS011;1651;50.940;6.888;2023-05-19T12:22:41;3.20;;;1.97;;
3278;SDS011;1651;50.940;6.888;2023-05-19T12:25:08;6.70;;;2.03;;
3278;SDS011;1651;50.940;6.888;2023-05-19T12:27:35;2.80;;;2.03;;
3278;SDS011;1651;50.940;6.888;2023-05-19T12:30:02;2.83;;;1.73;;
3278;SDS011;1651;50.940;6.888;2023-05-19T12:32:28;4.40;;;2.27;;
3278;SDS011;1651;50.940;6.888;2023-05-19T12:34:55;3.83;;;2.10;;
3278;SDS011;1651;50.940;6.888;2023-05-19T12:37:26;5.30;;;1.97;;
3278;SDS011;1651;50.940;6.888;2023-05-19T12:39:55;3.30;;;2.10;;
3278;SDS011;1651;50.940;6.888;2023-05-19T12:42:21;3.93;;;1.70;;
3278;SDS011;1651;50.940;6.888;2023-05-19T12:44:49;3.57;;;1.90;;
3278;SDS011;1651;50.940;6.888;2023-05-19T12:47:16;3.93;;;2.10;;
3278;SDS011;1651;50.940;6.888;2023-05-19T12:49:53;2.57;;;1.97;;
3278;SDS011;1651;50.940;6.888;2023-05-19T12:52:22;5.07;;;2.40;;
3278;SDS011;1651;50.940;6.888;2023-05-19T12:54:49;8.00;;;2.30;;
3278;SDS011;1651;50.940;6.888;2023-05-19T12:57:18;6.07;;;2.00;;
3278;SDS011;1651;50.940;6.888;2023-05-19T12:59:45;2.60;;;1.90;;
3278;SDS011;1651;50.940;6.888;2023-05-19T13:02:12;2.70;;;1.80;;
3278;SDS011;1651;50.940;6.888;2023-05-19T13:04:38;5.83;;;2.60;;
3278;SDS011;1651;50.940;6.888;2023-05-19T13:07:05;5.27;;;2.20;;
3278;SDS011;1651;50.940;6.888;2023-05-19T13:09:31;4.70;;;2.37;;
3278;SDS011;1651;50.940;6.888;2023-05-19T13:12:08;2.97;;;2.10;;
3278;SDS011;1651;50.940;6.888;2023-05-19T13:14:34;6.87;;;2.50;;
3278;SDS011;1651;50.940;6.888;2023-05-19T13:17:01;3.50;;;2.00;;
3278;SDS011;1651;50.940;6.888;2023-05-19T13:19:28;2.43;;;2.00;;
3278;SDS011;1651;50.940;6.888;2023-05-19T13:21:54;7.83;;;2.43;;
3278;SDS011;1651;50.940;6.888;2023-05-19T13:24:20;4.50;;;2.10;;
3278;SDS011;1651;50.940;6.888;2023-05-19T13:26:46;2.40;;;2.00;;
3278;SDS011;1651;50.940;6.888;2023-05-19T13:29:12;5.53;;;2.43;;
3278;SDS011;1651;50.940;6.888;2023-05-19T13:31:38;3.73;;;1.97;;
3278;SDS011;1651;50.940;6.888;2023-05-19T13:34:05;4.30;;;2.23;;
3278;SDS011;1651;50.940;6.888;2023-05-19T13:36:31;3.23;;;2.03;;
3278;SDS011;1651;50.940;6.888;2023-05-19T13:38:57;4.13;;;2.57;;
3278;SDS011;1651;50.940;6.888;2023-05-19T13:41:24;4.50;;;2.67;;
3278;SDS011;1651;50.940;6.888;2023-05-19T13:43:57;3.37;;;1.97;;
3278;SDS011;1651;50.940;6.888;2023-05-19T13:46:23;2.43;;;2.13;;
3278;SDS011;1651;50.940;6.888;2023-05-19T13:48:50;5.30;;;1.90;;
3278;SDS011;1651;50.940;6.888;2023-05-19T13:51:16;1.90;;;1.70;;
3278;SDS011;1651;50.940;6.888;2023-05-19T13:53:42;6.60;;;2.13;;
3278;SDS011;1651;50.940;6.888;2023-05-19T13:56:08;2.40;;;1.83;;
3278;SDS011;1651;50.940;6.888;2023-05-19T13:58:34;2.00;;;1.77;;
3278;SDS011;1651;50.940;6.888;2023-05-19T14:01:00;2.10;;;1.40;;
3278;SDS011;1651;50.940;6.888;2023-05-19T14:03:26;1.60;;;1.50;;
3278;SDS011;1651;50.940;6.888;2023-05-19T14:05:53;3.50;;;2.20;;
3278;SDS011;1651;50.940;6.888;2023-05-19T14:08:19;2.97;;;2.10;;
3278;SDS011;1651;50.940;6.888;2023-05-19T14:10:46;3.23;;;2.03;;
3278;SDS011;1651;50.940;6.888;2023-05-19T14:13:11;5.50;;;2.03;;
3278;SDS011;1651;50.940;6.888;2023-05-19T14:15:37;3.00;;;1.70;;
3278;SDS011;1651;50.940;6.888;2023-05-19T14:18:03;3.67;;;2.13;;
3278;SDS011;1651;50.940;6.888;2023-05-19T14:20:29;3.90;;;2.00;;
3278;SDS011;1651;50.940;6.888;2023-05-19T14:22:56;2.57;;;1.50;;
3278;SDS011;1651;50.940;6.888;2023-05-19T14:25:22;3.77;;;1.90;;
3278;SDS011;1651;50.940;6.888;2023-05-19T14:27:47;6.97;;;1.93;;
3278;SDS011;1651;50.940;6.888;2023-05-19T14:30:13;2.87;;;1.83;;
3278;SDS011;1651;50.940;6.888;2023-05-19T14:32:39;5.17;;;2.43;;
3278;SDS011;1651;50.940;6.888;2023-05-19T14:35:05;4.70;;;1.60;;
3278;SDS011;1651;50.940;6.888;2023-05-19T14:37:32;7.53;;;2.70;;
3278;SDS011;1651;50.940;6.888;2023-05-19T14:39:58;13.73;;;2.43;;
3278;SDS011;1651;50.940;6.888;2023-05-19T14:42:24;5.07;;;2.10;;
3278;SDS011;1651;50.940;6.888;2023-05-19T14:44:50;4.87;;;1.90;;
3278;SDS011;1651;50.940;6.888;2023-05-19T14:47:16;5.47;;;2.97;;
3278;SDS011;1651;50.940;6.888;2023-05-19T14:49:42;4.20;;;2.43;;
3278;SDS011;1651;50.940;6.888;2023-05-19T14:52:08;4.23;;;1.70;;
3278;SDS011;1651;50.940;6.888;2023-05-19T14:54:34;3.90;;;2.00;;
3278;SDS011;1651;50.940;6.888;2023-05-19T14:57:00;3.80;;;2.20;;
3278;SDS011;1651;50.940;6.888;2023-05-19T14:59:26;2.80;;;1.67;;
3278;SDS011;1651;50.940;6.888;2023-05-19T15:01:53;3.13;;;2.30;;
3278;SDS011;1651;50.940;6.888;2023-05-19T15:04:19;7.20;;;2.20;;
3278;SDS011;1651;50.940;6.888;2023-05-19T15:06:45;4.10;;;1.73;;
3278;SDS011;1651;50.940;6.888;2023-05-19T15:09:11;8.50;;;3.00;;
3278;SDS011;1651;50.940;6.888;2023-05-19T15:11:39;4.33;;;2.13;;
3278;SDS011;1651;50.940;6.888;2023-05-19T15:14:04;4.77;;;2.70;;
3278;SDS011;1651;50.940;6.888;2023-05-19T15:16:30;5.60;;;1.97;;
3278;SDS011;1651;50.940;6.888;2023-05-19T15:18:56;3.10;;;1.90;;
3278;SDS011;1651;50.940;6.888;2023-05-19T15:21:22;6.60;;;1.97;;
3278;SDS011;1651;50.940;6.888;2023-05-19T15:23:48;2.80;;;1.73;;
3278;SDS011;1651;50.940;6.888;2023-05-19T15:26:14;3.00;;;2.00;;
3278;SDS011;1651;50.940;6.888;2023-05-19T15:28:40;2.80;;;1.60;;
3278;SDS011;1651;50.940;6.888;2023-05-19T15:31:06;3.77;;;1.97;;
3278;SDS011;1651;50.940;6.888;2023-05-19T15:33:32;4.07;;;1.87;;
3278;SDS011;1651;50.940;6.888;2023-05-19T15:35:58;5.63;;;2.00;;
3278;SDS011;1651;50.940;6.888;2023-05-19T15:38:24;2.83;;;1.80;;
3278;SDS011;1651;50.940;6.888;2023-05-19T15:40:51;3.27;;;1.90;;